createdAt,value
2023-05-03T00:00:35.123Z,87.93
2023-05-03T00:03:04.812Z,86.87
2023-05-03T00:05:32.707Z,85.99
2023-05-03T00:08:00.836Z,87.76
2023-05-03T00:10:30.330Z,86.14
2023-05-03T00:12:58.139Z,86.05
2023-05-03T00:15:27.090Z,86.28
2023-05-03T00:17:57.854Z,88.44
2023-05-03T00:20:26.427Z,86.97
2023-05-03T00:22:54.184Z,87.91
2023-05-03T00:25:21.911Z,88.42
2023-05-03T00:27:50.969Z,88.50
2023-05-03T00:30:19.531Z,88.88
2023-05-03T00:32:47.552Z,87.53
2023-05-03T00:35:15.327Z,87.64
2023-05-03T00:37:43.081Z,88.19
2023-05-03T00:40:11.361Z,87.68
2023-05-03T00:42:39.148Z,88.90
2023-05-03T00:45:09.234Z,89.32
2023-05-03T00:47:37.893Z,89.46
2023-05-03T00:50:07.285Z,88.58
2023-05-03T00:52:35.700Z,88.66
2023-05-03T00:55:03.541Z,87.94
2023-05-03T00:57:31.961Z,90.38
2023-05-03T00:59:59.949Z,88.91
2023-05-03T01:02:30.470Z,89.95
2023-05-03T01:04:58.439Z,89.38
2023-05-03T01:07:35.720Z,89.71
2023-05-03T01:10:13.743Z,90.21
2023-05-03T01:12:53.686Z,89.08
2023-05-03T01:15:37.285Z,88.49
2023-05-03T01:18:12.497Z,89.64
2023-05-03T01:20:44.778Z,89.80
2023-05-03T01:23:20.325Z,90.16
2023-05-03T01:25:53.162Z,90.78
2023-05-03T01:28:21.480Z,91.22
2023-05-03T01:30:53.263Z,90.65
2023-05-03T01:33:34.564Z,90.28
2023-05-03T01:36:10.175Z,91.11
2023-05-03T01:38:38.904Z,90.82
2023-05-03T01:41:12.625Z,90.03
2023-05-03T01:43:41.654Z,90.43
2023-05-03T01:46:09.526Z,92.26
2023-05-03T01:48:37.329Z,92.21
2023-05-03T01:51:05.941Z,91.81
2023-05-03T01:53:33.703Z,91.61
2023-05-03T01:56:01.509Z,92.30
2023-05-03T01:58:30.568Z,92.33
2023-05-03T02:00:58.382Z,91.94
2023-05-03T02:03:26.140Z,92.45
2023-05-03T02:05:54.111Z,90.22
2023-05-03T02:08:21.972Z,92.36
2023-05-03T02:10:49.735Z,93.53
2023-05-03T02:13:17.548Z,91.90
2023-05-03T02:15:50.284Z,91.51
2023-05-03T02:18:18.443Z,90.44
2023-05-03T02:20:46.616Z,90.63
2023-05-03T02:23:14.852Z,91.13
2023-05-03T02:25:42.906Z,92.37
2023-05-03T02:28:10.727Z,93.09
2023-05-03T02:30:38.584Z,94.38
2023-05-03T02:33:07.783Z,92.44
2023-05-03T02:35:37.156Z,92.27
2023-05-03T02:38:04.894Z,91.64
2023-05-03T02:40:32.755Z,92.10
2023-05-03T02:43:00.860Z,94.89
2023-05-03T02:45:30.841Z,91.98
2023-05-03T02:47:59.078Z,92.02
2023-05-03T02:50:29.498Z,94.28
2023-05-03T02:52:57.321Z,93.09
2023-05-03T02:55:25.161Z,93.52
2023-05-03T02:57:53.059Z,92.58
2023-05-03T03:00:21.847Z,91.48
2023-05-03T03:02:50.085Z,93.56
2023-05-03T03:05:17.922Z,92.77
2023-05-03T03:07:51.236Z,91.79
2023-05-03T03:10:19.298Z,90.83
2023-05-03T03:12:47.541Z,90.56
2023-05-03T03:15:23.976Z,91.71
2023-05-03T03:17:52.238Z,92.38
2023-05-03T03:20:20.244Z,91.06
2023-05-03T03:22:49.234Z,91.00
2023-05-03T03:25:18.343Z,91.06
2023-05-03T03:27:46.082Z,91.37
2023-05-03T03:30:14.309Z,92.51
2023-05-03T03:32:53.697Z,91.90
2023-05-03T03:35:28.831Z,92.42
2023-05-03T03:37:56.870Z,94.69
2023-05-03T03:40:26.836Z,95.31
2023-05-03T03:42:56.750Z,92.38
2023-05-03T03:45:24.601Z,92.70
2023-05-03T03:47:53.759Z,93.14
2023-05-03T03:50:23.670Z,92.76
2023-05-03T03:52:51.424Z,92.65
2023-05-03T03:55:19.388Z,94.59
2023-05-03T03:57:50.975Z,94.21
2023-05-03T04:00:19.449Z,94.49
2023-05-03T04:02:53.129Z,93.41
2023-05-03T04:05:21.304Z,93.78
2023-05-03T04:07:49.486Z,95.27
2023-05-03T04:10:18.306Z,96.13
2023-05-03T04:12:46.096Z,96.32
2023-05-03T04:15:19.880Z,95.35
2023-05-03T04:17:48.397Z,95.65
2023-05-03T04:20:18.134Z,94.25
2023-05-03T04:22:50.595Z,96.83
2023-05-03T04:25:20.683Z,95.93
2023-05-03T04:27:56.125Z,98.01
2023-05-03T04:30:26.434Z,96.06
2023-05-03T04:32:58.470Z,96.58
2023-05-03T04:35:28.736Z,95.55
2023-05-03T04:37:57.997Z,97.60
2023-05-03T04:40:27.865Z,97.98
2023-05-03T04:43:05.357Z,97.50
2023-05-03T04:45:38.383Z,98.43
2023-05-03T04:48:09.353Z,98.85
2023-05-03T04:50:37.667Z,98.60
2023-05-03T04:53:08.463Z,99.29
2023-05-03T04:55:40.168Z,99.96
2023-05-03T04:58:07.988Z,100.00
2023-05-03T05:00:38.888Z,100.00
2023-05-03T05:03:13.235Z,100.00
2023-05-03T05:05:41.068Z,100.00
2023-05-03T05:08:12.010Z,100.00
2023-05-03T05:10:45.128Z,100.00
2023-05-03T05:13:17.367Z,100.00
2023-05-03T05:15:46.609Z,100.00
2023-05-03T05:18:14.997Z,100.00
2023-05-03T05:20:43.122Z,100.00
2023-05-03T05:23:11.191Z,100.00
2023-05-03T05:25:42.699Z,100.00
2023-05-03T05:28:11.214Z,100.00
2023-05-03T05:30:40.057Z,100.00
2023-05-03T05:33:09.811Z,100.00
2023-05-03T05:35:38.503Z,100.00
2023-05-03T05:38:06.421Z,100.00
2023-05-03T05:40:35.794Z,100.00
2023-05-03T05:43:03.632Z,100.00
2023-05-03T05:45:35.927Z,100.00
2023-05-03T05:48:05.547Z,100.00
2023-05-03T05:50:36.552Z,100.00
2023-05-03T05:53:10.142Z,100.00
2023-05-03T05:55:41.835Z,100.00
2023-05-03T05:58:12.021Z,100.00
2023-05-03T06:00:45.226Z,100.00
2023-05-03T06:03:13.491Z,100.00
2023-05-03T06:05:42.831Z,100.00
2023-05-03T06:08:11.643Z,100.00
2023-05-03T06:10:39.979Z,100.00
2023-05-03T06:13:07.765Z,97.16
2023-05-03T06:15:36.268Z,94.63
2023-05-03T06:18:04.622Z,96.16
2023-05-03T06:20:32.538Z,93.65
2023-05-03T06:23:02.211Z,99.26
2023-05-03T06:25:30.014Z,100.00
2023-05-03T06:27:58.204Z,97.30
2023-05-03T06:30:31.135Z,92.92
2023-05-03T06:33:05.262Z,92.33
2023-05-03T06:35:33.436Z,94.56
2023-05-03T06:38:02.575Z,92.65
2023-05-03T06:40:30.378Z,92.62
2023-05-03T06:42:58.102Z,96.05
2023-05-03T06:45:46.112Z,90.96
2023-05-03T06:48:13.892Z,94.60
2023-05-03T06:50:41.795Z,91.08
2023-05-03T06:53:11.061Z,89.09
2023-05-03T06:55:38.782Z,87.07
2023-05-03T06:58:10.036Z,90.02
2023-05-03T07:00:39.123Z,86.63
2023-05-03T07:03:07.170Z,86.62
2023-05-03T07:05:35.233Z,80.46
2023-05-03T07:08:03.653Z,84.22
2023-05-03T07:10:32.804Z,89.32
2023-05-03T07:13:00.535Z,78.95
2023-05-03T07:15:28.250Z,82.72
2023-05-03T07:17:56.052Z,80.30
2023-05-03T07:20:23.833Z,84.63
2023-05-03T07:22:51.618Z,85.01
2023-05-03T07:25:19.472Z,83.15
2023-05-03T07:27:48.611Z,80.23
2023-05-03T07:30:16.436Z,77.39
2023-05-03T07:32:44.210Z,77.39
2023-05-03T07:35:12.145Z,78.88
2023-05-03T07:37:39.925Z,74.94
2023-05-03T07:40:09.718Z,72.61
2023-05-03T07:42:37.463Z,77.96
2023-05-03T07:45:07.990Z,75.41
2023-05-03T07:47:38.116Z,75.93
2023-05-03T07:50:07.381Z,73.04
2023-05-03T07:52:37.399Z,75.49
2023-05-03T07:55:06.769Z,77.08
2023-05-03T07:57:34.591Z,73.08
2023-05-03T08:00:02.562Z,67.10
2023-05-03T08:02:42.184Z,69.89
2023-05-03T08:05:14.567Z,68.02
2023-05-03T08:07:42.770Z,68.33
2023-05-03T08:10:11.495Z,69.72
2023-05-03T08:12:39.400Z,65.89
2023-05-03T08:15:08.562Z,68.71
2023-05-03T08:17:42.845Z,64.97
2023-05-03T08:20:11.939Z,66.47
2023-05-03T08:22:41.333Z,65.42
2023-05-03T08:25:09.997Z,63.95
2023-05-03T08:27:38.310Z,69.16
2023-05-03T08:30:07.778Z,63.66
2023-05-03T08:32:35.633Z,65.87
2023-05-03T08:35:06.983Z,68.09
2023-05-03T08:37:39.980Z,63.76
2023-05-03T08:40:10.166Z,63.82
2023-05-03T08:42:41.169Z,64.88
2023-05-03T08:45:11.313Z,61.83
2023-05-03T08:47:40.723Z,64.27
2023-05-03T08:50:12.081Z,64.29
2023-05-03T08:52:42.543Z,63.22
2023-05-03T08:55:12.028Z,64.21
2023-05-03T08:57:41.108Z,62.12
2023-05-03T09:00:10.964Z,61.04
2023-05-03T09:02:39.948Z,60.53
2023-05-03T09:05:33.952Z,63.40
2023-05-03T09:08:03.569Z,62.39
2023-05-03T09:10:31.482Z,62.75
2023-05-03T09:13:00.999Z,64.34
2023-05-03T09:15:29.643Z,62.08
2023-05-03T09:18:15.520Z,63.86
2023-05-03T09:20:51.458Z,63.24
2023-05-03T09:23:21.128Z,61.92
2023-05-03T09:25:51.335Z,62.16
2023-05-03T09:28:20.585Z,63.35
2023-05-03T09:30:49.253Z,61.65
2023-05-03T09:33:21.382Z,61.62
2023-05-03T09:36:02.646Z,60.38
2023-05-03T09:38:31.991Z,59.92
2023-05-03T09:40:59.857Z,63.71
2023-05-03T09:43:27.680Z,62.41
2023-05-03T09:46:09.368Z,60.90
2023-05-03T09:48:37.911Z,60.84
2023-05-03T09:51:08.076Z,59.71
2023-05-03T09:53:36.904Z,61.78
2023-05-03T09:56:06.107Z,57.19
2023-05-03T09:58:35.175Z,59.49
2023-05-03T10:01:03.456Z,60.01
2023-05-03T10:03:39.197Z,55.65
2023-05-03T10:06:20.758Z,59.35
2023-05-03T10:08:52.191Z,58.76
2023-05-03T10:11:20.998Z,59.73
2023-05-03T10:13:48.773Z,57.03
2023-05-03T10:16:22.400Z,59.19
2023-05-03T10:18:55.576Z,59.43
2023-05-03T10:21:34.508Z,56.20
2023-05-03T10:24:13.699Z,54.36
2023-05-03T10:26:42.442Z,58.95
2023-05-03T10:29:48.892Z,57.07
2023-05-03T10:32:30.641Z,57.35
2023-05-03T10:35:00.716Z,54.61
2023-05-03T10:37:34.527Z,54.21
2023-05-03T10:40:11.509Z,49.58
2023-05-03T10:42:40.120Z,52.54
2023-05-03T10:45:09.930Z,46.79
2023-05-03T10:47:37.900Z,51.18
2023-05-03T10:50:28.091Z,50.11
2023-05-03T10:52:57.391Z,47.10
2023-05-03T10:55:28.174Z,47.50
2023-05-03T10:57:58.676Z,46.59
2023-05-03T11:00:32.497Z,49.02
2023-05-03T11:03:12.156Z,49.55
2023-05-03T11:05:40.316Z,43.36
2023-05-03T11:08:13.897Z,44.77
2023-05-03T11:10:42.224Z,42.37
2023-05-03T11:13:09.991Z,43.22
2023-05-03T11:15:37.783Z,44.20
2023-05-03T11:18:07.138Z,44.93
2023-05-03T11:20:35.014Z,42.62
2023-05-03T11:23:03.859Z,42.36
2023-05-03T11:25:33.529Z,44.01
2023-05-03T11:28:01.502Z,39.98
2023-05-03T11:30:29.778Z,38.60
2023-05-03T11:32:57.690Z,40.43
2023-05-03T11:35:26.988Z,42.51
2023-05-03T11:37:54.840Z,41.83
2023-05-03T11:40:22.543Z,43.73
2023-05-03T11:42:56.028Z,38.66
2023-05-03T11:45:25.681Z,41.30
2023-05-03T11:47:54.682Z,38.65
2023-05-03T11:50:29.428Z,39.71
2023-05-03T11:52:57.420Z,41.28
2023-05-03T11:55:25.169Z,37.81
2023-05-03T11:57:54.310Z,38.24
2023-05-03T12:00:22.710Z,39.18
2023-05-03T12:02:51.136Z,39.26
2023-05-03T12:05:20.016Z,38.57
2023-05-03T12:07:50.092Z,35.88
2023-05-03T12:10:23.098Z,37.29
2023-05-03T12:13:00.243Z,37.21
2023-05-03T12:15:30.378Z,37.25
2023-05-03T12:18:00.207Z,35.56
2023-05-03T12:23:04.252Z,35.68
2023-05-03T12:25:34.345Z,34.15
2023-05-03T12:30:37.095Z,33.68
2023-05-03T12:33:10.172Z,35.93
2023-05-03T12:35:40.959Z,34.83
2023-05-03T12:38:10.317Z,36.03
2023-05-03T12:40:39.499Z,33.42
2023-05-03T12:43:08.942Z,34.92
2023-05-03T12:45:40.112Z,35.59
2023-05-03T12:48:09.212Z,34.79
2023-05-03T12:50:39.362Z,34.69
2023-05-03T12:53:09.699Z,33.11
2023-05-03T12:55:43.430Z,32.53
2023-05-03T12:58:46.301Z,32.93
2023-05-03T13:03:34.143Z,31.64
2023-05-03T13:06:12.740Z,32.11
2023-05-03T13:08:49.622Z,31.89
2023-05-03T13:11:19.177Z,30.42
2023-05-03T13:13:48.819Z,32.02
2023-05-03T13:16:16.677Z,32.41
2023-05-03T13:18:45.465Z,31.00
2023-05-03T13:21:13.576Z,31.02
2023-05-03T13:23:41.488Z,32.19
2023-05-03T13:26:09.287Z,32.04
2023-05-03T13:28:37.055Z,32.62
2023-05-03T13:31:06.293Z,32.67
2023-05-03T13:33:37.928Z,32.55
2023-05-03T13:36:06.052Z,33.45
2023-05-03T13:38:33.911Z,34.03
2023-05-03T13:41:02.367Z,31.80
2023-05-03T13:43:33.448Z,31.87
2023-05-03T13:46:01.929Z,30.95
2023-05-03T13:48:32.623Z,31.17
2023-05-03T13:51:00.596Z,29.95
2023-05-03T13:53:28.441Z,31.19
2023-05-03T13:55:56.532Z,32.38
2023-05-03T13:58:24.301Z,31.88
2023-05-03T14:00:52.245Z,31.56
2023-05-03T14:03:21.795Z,32.08
2023-05-03T14:05:51.029Z,32.64
2023-05-03T14:08:18.929Z,32.22
2023-05-03T14:10:46.671Z,33.03
2023-05-03T14:13:14.626Z,34.41
2023-05-03T14:15:43.958Z,34.17
2023-05-03T14:18:14.346Z,34.41
2023-05-03T14:20:42.347Z,33.03
2023-05-03T14:23:11.441Z,35.86
2023-05-03T14:25:39.300Z,35.86
2023-05-03T14:28:07.086Z,35.42
2023-05-03T14:30:35.024Z,36.24
2023-05-03T14:33:02.889Z,35.19
2023-05-03T14:35:30.618Z,35.92
2023-05-03T14:37:58.762Z,35.13
2023-05-03T14:40:28.027Z,35.73
2023-05-03T14:42:55.757Z,35.01
2023-05-03T14:45:23.543Z,34.94
2023-05-03T14:47:53.358Z,35.19
2023-05-03T14:50:21.213Z,35.51
2023-05-03T14:52:49.051Z,34.60
2023-05-03T14:55:17.280Z,32.97
2023-05-03T14:57:46.533Z,33.61
2023-05-03T15:00:17.621Z,33.93
2023-05-03T15:02:46.678Z,34.09
2023-05-03T15:05:25.409Z,35.05
2023-05-03T15:07:55.266Z,35.17
2023-05-03T15:10:23.246Z,35.86
2023-05-03T15:12:52.304Z,35.93
2023-05-03T15:15:20.185Z,35.96
2023-05-03T15:17:48.245Z,36.76
2023-05-03T15:20:16.654Z,35.85
2023-05-03T15:22:44.473Z,36.71
2023-05-03T15:25:12.395Z,36.05
2023-05-03T15:27:40.186Z,38.00
2023-05-03T15:30:12.289Z,36.48
2023-05-03T15:32:40.283Z,37.66
2023-05-03T15:35:08.422Z,36.29
2023-05-03T15:37:37.907Z,36.97
2023-05-03T15:40:09.216Z,36.77
2023-05-03T15:42:37.081Z,35.84
2023-05-03T15:45:06.068Z,38.31
2023-05-03T15:47:35.660Z,37.85
2023-05-03T15:50:04.019Z,37.06
2023-05-03T15:52:32.030Z,35.77
2023-05-03T15:54:59.786Z,36.70
2023-05-03T15:57:28.084Z,35.55
2023-05-03T15:59:56.680Z,37.24
2023-05-03T16:02:24.632Z,36.15
2023-05-03T16:04:53.828Z,34.16
2023-05-03T16:07:21.675Z,35.87
2023-05-03T16:09:49.608Z,36.23
2023-05-03T16:12:17.373Z,35.51
2023-05-03T16:14:45.166Z,35.06
2023-05-03T16:17:12.961Z,35.52
2023-05-03T16:19:40.653Z,36.50
2023-05-03T16:22:09.749Z,38.06
2023-05-03T16:24:37.541Z,37.02
2023-05-03T16:27:05.503Z,36.73
2023-05-03T16:29:34.457Z,35.76
2023-05-03T16:32:02.200Z,34.74
2023-05-03T16:34:30.013Z,35.68
2023-05-03T16:36:57.719Z,34.52
2023-05-03T16:39:26.886Z,35.90
2023-05-03T16:41:54.580Z,35.83
2023-05-03T16:44:22.336Z,37.66
2023-05-03T16:46:51.122Z,39.38
2023-05-03T16:49:19.363Z,39.73
2023-05-03T16:51:47.178Z,39.97
2023-05-03T16:54:16.863Z,40.24
2023-05-03T16:56:46.331Z,42.19
2023-05-03T16:59:17.034Z,42.70
2023-05-03T17:01:45.603Z,41.72
2023-05-03T17:04:14.151Z,42.56
2023-05-03T17:06:42.159Z,43.42
2023-05-03T17:09:10.432Z,43.09
2023-05-03T17:11:38.181Z,42.28
2023-05-03T17:14:07.310Z,43.71
2023-05-03T17:16:35.164Z,43.42
2023-05-03T17:19:02.939Z,44.82
2023-05-03T17:21:31.427Z,44.39
2023-05-03T17:23:59.096Z,45.13
2023-05-03T17:26:26.902Z,45.09
2023-05-03T17:28:54.613Z,45.23
2023-05-03T17:31:23.729Z,44.84
2023-05-03T17:33:52.054Z,45.73
2023-05-03T17:36:22.053Z,47.62
2023-05-03T17:38:50.116Z,47.92
2023-05-03T17:41:17.887Z,48.18
2023-05-03T17:43:45.613Z,47.22
2023-05-03T17:46:15.002Z,47.71
2023-05-03T17:48:44.394Z,48.01
2023-05-03T17:51:13.540Z,48.17
2023-05-03T17:53:43.438Z,48.39
2023-05-03T17:56:16.220Z,48.16
2023-05-03T17:58:44.776Z,49.32
2023-05-03T18:01:15.997Z,49.81
2023-05-03T18:03:45.461Z,49.73
2023-05-03T18:06:14.566Z,50.02
2023-05-03T18:08:42.559Z,49.61
2023-05-03T18:11:10.355Z,50.24
2023-05-03T18:13:38.136Z,49.79
2023-05-03T18:16:08.973Z,49.87
2023-05-03T18:18:37.295Z,50.32
2023-05-03T18:21:07.165Z,51.17
2023-05-03T18:23:35.213Z,50.37
2023-05-03T18:26:05.474Z,50.38
2023-05-03T18:28:33.151Z,50.90
2023-05-03T18:31:00.910Z,50.79
2023-05-03T18:33:28.671Z,50.62
2023-05-03T18:35:57.019Z,52.12
2023-05-03T18:38:29.587Z,51.23
2023-05-03T18:40:57.461Z,51.99
2023-05-03T18:43:25.224Z,51.34
2023-05-03T18:45:53.280Z,51.40
2023-05-03T18:48:21.006Z,51.60
2023-05-03T18:50:49.214Z,52.17
2023-05-03T18:53:16.918Z,51.54
2023-05-03T18:55:46.198Z,53.03
2023-05-03T18:58:13.912Z,52.22
2023-05-03T19:00:41.721Z,53.32
2023-05-03T19:03:09.884Z,53.48
2023-05-03T19:05:37.683Z,54.41
2023-05-03T19:08:05.752Z,53.72
2023-05-03T19:10:33.485Z,53.73
2023-05-03T19:13:03.310Z,53.66
2023-05-03T19:15:31.181Z,54.43
2023-05-03T19:17:58.965Z,55.23
2023-05-03T19:20:26.883Z,53.26
2023-05-03T19:22:54.647Z,53.53
2023-05-03T19:25:22.491Z,53.87
2023-05-03T19:27:50.856Z,53.37
2023-05-03T19:30:20.351Z,52.79
2023-05-03T19:32:51.008Z,53.33
2023-05-03T19:35:18.968Z,54.55
2023-05-03T19:37:46.723Z,55.02
2023-05-03T19:40:14.963Z,54.47
2023-05-03T19:42:42.793Z,54.95
2023-05-03T19:45:11.399Z,55.31
2023-05-03T19:47:40.508Z,54.33
2023-05-03T19:50:08.712Z,55.49
2023-05-03T19:52:36.510Z,54.60
2023-05-03T19:55:07.097Z,55.67
2023-05-03T19:57:34.979Z,56.13
2023-05-03T20:00:04.744Z,57.84
2023-05-03T20:02:33.055Z,60.56
2023-05-03T20:05:02.204Z,61.06
2023-05-03T20:07:30.122Z,61.60
2023-05-03T20:09:58.029Z,59.81
2023-05-03T20:12:26.805Z,59.55
2023-05-03T20:14:54.640Z,62.09
2023-05-03T20:17:22.493Z,63.14
2023-05-03T20:19:50.703Z,61.03
2023-05-03T20:22:19.866Z,63.45
2023-05-03T20:24:47.574Z,61.03
2023-05-03T20:27:15.332Z,61.64
2023-05-03T20:29:43.652Z,59.74
2023-05-03T20:32:11.526Z,59.35
2023-05-03T20:34:40.181Z,62.13
2023-05-03T20:37:08.290Z,61.99
2023-05-03T20:39:37.800Z,61.04
2023-05-03T20:42:05.845Z,60.80
2023-05-03T20:44:33.569Z,61.06
2023-05-03T20:47:01.284Z,60.44
2023-05-03T20:49:30.037Z,60.00
2023-05-03T20:51:57.795Z,59.87
2023-05-03T20:54:26.106Z,60.06
2023-05-03T20:56:55.912Z,61.51
2023-05-03T20:59:23.678Z,60.13
2023-05-03T21:01:52.258Z,60.79
2023-05-03T21:04:20.089Z,61.79
2023-05-03T21:06:47.816Z,61.67
2023-05-03T21:09:15.519Z,62.42
2023-05-03T21:11:43.257Z,61.93
2023-05-03T21:14:13.615Z,62.54
2023-05-03T21:16:41.354Z,62.39
2023-05-03T21:19:09.111Z,61.95
2023-05-03T21:21:36.851Z,63.89
2023-05-03T21:24:04.782Z,62.05
2023-05-03T21:26:32.580Z,63.20
2023-05-03T21:29:00.579Z,62.65
2023-05-03T21:31:29.809Z,62.96
2023-05-03T21:33:58.136Z,61.91
2023-05-03T21:36:25.910Z,62.16
2023-05-03T21:38:53.690Z,62.63
2023-05-03T21:41:21.455Z,61.92
2023-05-03T21:43:50.739Z,63.97
2023-05-03T21:46:18.534Z,63.79
2023-05-03T21:48:47.767Z,64.99
2023-05-03T21:51:19.391Z,65.37
2023-05-03T21:53:47.387Z,67.29
2023-05-03T21:56:15.283Z,68.22
2023-05-03T21:58:45.229Z,68.47
2023-05-03T22:01:13.288Z,69.20
2023-05-03T22:03:41.348Z,70.47
2023-05-03T22:06:10.817Z,72.07
2023-05-03T22:08:38.680Z,72.66
2023-05-03T22:11:07.818Z,71.64
2023-05-03T22:13:43.185Z,72.37
2023-05-03T22:16:19.290Z,72.41
2023-05-03T22:18:47.078Z,73.59
2023-05-03T22:21:16.554Z,73.05
2023-05-03T22:23:44.278Z,75.90
2023-05-03T22:26:12.481Z,74.41
2023-05-03T22:28:40.198Z,74.75
2023-05-03T22:31:07.917Z,73.50
2023-05-03T22:33:35.584Z,73.11
2023-05-03T22:36:03.289Z,74.02
2023-05-03T22:38:32.359Z,74.26
2023-05-03T22:41:00.116Z,74.80
2023-05-03T22:43:27.798Z,73.87
2023-05-03T22:45:55.893Z,74.66
2023-05-03T22:48:23.638Z,76.85
2023-05-03T22:50:51.591Z,76.44
2023-05-03T22:53:19.701Z,77.38
2023-05-03T22:55:56.084Z,81.14
2023-05-03T22:58:24.045Z,78.39
2023-05-03T23:00:52.574Z,77.29
2023-05-03T23:03:20.499Z,79.67
2023-05-03T23:05:49.274Z,79.26
2023-05-03T23:08:17.004Z,80.36
2023-05-03T23:10:44.726Z,80.68
2023-05-03T23:13:14.272Z,79.91
2023-05-03T23:15:42.215Z,80.61
2023-05-03T23:18:10.019Z,79.64
2023-05-03T23:20:37.804Z,81.00
2023-05-03T23:23:05.601Z,81.25
2023-05-03T23:25:33.590Z,81.27
2023-05-03T23:28:01.357Z,80.08
2023-05-03T23:30:30.795Z,82.04
2023-05-03T23:32:59.086Z,81.68
2023-05-03T23:35:27.336Z,80.67
2023-05-03T23:37:55.128Z,82.74
2023-05-03T23:40:22.803Z,82.20
2023-05-03T23:42:50.476Z,82.12
2023-05-03T23:45:18.480Z,81.97
2023-05-03T23:47:47.513Z,81.50
2023-05-03T23:50:15.268Z,81.39
2023-05-03T23:52:43.224Z,83.60
2023-05-03T23:55:11.555Z,83.67
2023-05-03T23:57:39.467Z,83.49
